createdAt,value
2024-03-28T00:00:05.978Z,0.54
2024-03-28T00:01:05.989Z,0.55
2024-03-28T00:02:05.983Z,0.54
2024-03-28T00:03:05.979Z,0.53
2024-03-28T00:04:05.973Z,0.54
2024-03-28T00:05:05.974Z,0.54
2024-03-28T00:06:05.971Z,0.54
2024-03-28T00:07:05.978Z,0.53
2024-03-28T00:08:05.964Z,0.52
2024-03-28T00:09:05.963Z,0.54
2024-03-28T00:10:05.963Z,0.54
2024-03-28T00:11:05.959Z,0.54
2024-03-28T00:12:05.967Z,0.52
2024-03-28T00:13:05.950Z,0.52
2024-03-28T00:14:05.958Z,0.52
2024-03-28T00:15:05.947Z,0.51
2024-03-28T00:16:05.955Z,0.54
2024-03-28T00:17:05.952Z,0.52
2024-03-28T00:18:05.950Z,0.51
2024-03-28T00:19:08.218Z,0.51
2024-03-28T00:20:05.941Z,0.51
2024-03-28T00:21:05.969Z,0.52
2024-03-28T00:22:05.997Z,0.52
2024-03-28T00:23:06.029Z,0.51
2024-03-28T00:24:06.064Z,0.52
2024-03-28T00:25:06.102Z,0.51
2024-03-28T00:26:06.134Z,0.51
2024-03-28T00:27:06.174Z,0.51
2024-03-28T00:28:06.196Z,0.53
2024-03-28T00:29:06.249Z,0.53
2024-03-28T00:30:06.258Z,0.53
2024-03-28T00:31:06.289Z,0.52
2024-03-28T00:32:06.325Z,0.54
2024-03-28T00:33:06.347Z,0.56
2024-03-28T00:34:06.382Z,0.55
2024-03-28T00:35:06.414Z,0.55
2024-03-28T00:36:06.436Z,0.58
2024-03-28T00:37:06.473Z,0.56
2024-03-28T00:38:06.497Z,0.57
2024-03-28T00:39:06.537Z,0.58
2024-03-28T00:40:06.561Z,0.59
2024-03-28T00:41:06.605Z,0.59
2024-03-28T00:42:06.613Z,0.60
2024-03-28T00:43:06.646Z,0.60
2024-03-28T00:44:06.676Z,0.60
2024-03-28T00:45:06.718Z,0.61
2024-03-28T00:46:06.731Z,0.59
2024-03-28T00:47:06.743Z,0.58
2024-03-28T00:48:06.766Z,0.58
2024-03-28T00:49:06.799Z,0.57
2024-03-28T00:50:06.834Z,0.57
2024-03-28T00:51:06.945Z,0.58
2024-03-28T00:52:06.895Z,0.56
2024-03-28T00:53:06.908Z,0.56
2024-03-28T00:54:06.940Z,0.56
2024-03-28T00:55:06.972Z,0.56
2024-03-28T00:56:07.004Z,0.56
2024-03-28T00:57:07.039Z,0.58
2024-03-28T00:58:07.093Z,0.55
2024-03-28T00:59:07.079Z,0.57
2024-03-28T01:00:07.128Z,0.57
2024-03-28T01:01:07.148Z,0.57
2024-03-28T01:02:07.175Z,0.60
2024-03-28T01:03:07.202Z,0.58
2024-03-28T01:04:07.228Z,0.60
2024-03-28T01:05:07.260Z,0.59
2024-03-28T01:06:07.294Z,0.60
2024-03-28T01:07:07.331Z,0.60
2024-03-28T01:08:07.361Z,0.62
2024-03-28T01:09:07.387Z,0.63
2024-03-28T01:10:07.413Z,0.63
2024-03-28T01:11:07.450Z,0.62
2024-03-28T01:12:07.501Z,0.62
2024-03-28T01:13:07.515Z,0.64
2024-03-28T01:14:07.535Z,0.62
2024-03-28T01:15:07.575Z,0.64
2024-03-28T01:16:07.591Z,0.64
2024-03-28T01:17:07.650Z,0.65
2024-03-28T01:18:09.658Z,0.65
2024-03-28T01:19:07.913Z,0.66
2024-03-28T01:20:07.663Z,0.65
2024-03-28T01:21:07.667Z,0.65
2024-03-28T01:22:07.694Z,0.67
2024-03-28T01:23:07.672Z,0.68
2024-03-28T01:24:07.666Z,0.68
2024-03-28T01:25:07.655Z,0.68
2024-03-28T01:26:07.668Z,0.69
2024-03-28T01:27:07.652Z,0.69
2024-03-28T01:28:10.232Z,0.69
2024-03-28T01:29:07.630Z,0.69
2024-03-28T01:30:07.643Z,0.70
2024-03-28T01:31:07.624Z,0.70
2024-03-28T01:32:07.633Z,0.71
2024-03-28T01:33:07.617Z,0.71
2024-03-28T01:34:07.616Z,0.72
2024-03-28T01:35:07.594Z,0.71
2024-03-28T01:36:07.601Z,0.70
2024-03-28T01:37:10.215Z,0.70
2024-03-28T01:38:07.590Z,0.70
2024-03-28T01:39:07.590Z,0.70
2024-03-28T01:40:07.577Z,0.71
2024-03-28T01:41:07.571Z,0.72
2024-03-28T01:42:07.571Z,0.73
2024-03-28T01:43:07.562Z,0.72
2024-03-28T01:44:07.564Z,0.72
2024-03-28T01:45:07.563Z,0.73
2024-03-28T01:46:07.657Z,0.73
2024-03-28T01:47:25.824Z,0.73
2024-03-28T01:48:08.758Z,0.72
2024-03-28T01:49:07.571Z,0.72
2024-03-28T01:50:07.569Z,0.73
2024-03-28T01:51:07.572Z,0.73
2024-03-28T01:52:07.574Z,0.73
2024-03-28T01:53:07.576Z,0.74
2024-03-28T01:54:07.580Z,0.74
2024-03-28T01:55:07.571Z,0.74
2024-03-28T01:56:07.570Z,0.75
2024-03-28T01:57:07.611Z,0.74
2024-03-28T01:58:07.565Z,0.74
2024-03-28T01:59:07.571Z,0.73
2024-03-28T02:00:07.606Z,0.74
2024-03-28T02:01:07.562Z,0.76
2024-03-28T02:02:07.638Z,0.73
2024-03-28T02:03:07.575Z,0.75
2024-03-28T02:04:07.576Z,0.73
2024-03-28T02:05:07.584Z,0.73
2024-03-28T02:06:07.581Z,0.73
2024-03-28T02:07:07.591Z,0.77
2024-03-28T02:08:07.780Z,0.74
2024-03-28T02:09:07.644Z,0.74
2024-03-28T02:10:07.676Z,0.72
2024-03-28T02:11:07.693Z,0.73
2024-03-28T02:12:09.907Z,0.74
2024-03-28T02:13:07.713Z,0.73
2024-03-28T02:14:07.733Z,0.74
2024-03-28T02:15:07.721Z,0.75
2024-03-28T02:16:07.713Z,0.74
2024-03-28T02:17:07.711Z,0.72
2024-03-28T02:18:07.707Z,0.74
2024-03-28T02:19:07.713Z,0.74
2024-03-28T02:20:07.702Z,0.73
2024-03-28T02:21:07.689Z,0.74
2024-03-28T02:22:07.709Z,0.74
2024-03-28T02:23:07.680Z,0.73
2024-03-28T02:24:07.694Z,0.69
2024-03-28T02:25:07.677Z,0.70
2024-03-28T02:26:07.683Z,0.70
2024-03-28T02:27:07.685Z,0.69
2024-03-28T02:28:07.681Z,0.69
2024-03-28T02:29:07.698Z,0.69
2024-03-28T02:30:07.707Z,0.70
2024-03-28T02:31:07.670Z,0.69
2024-03-28T02:32:07.676Z,0.67
2024-03-28T02:33:07.664Z,0.70
2024-03-28T02:34:07.666Z,0.68
2024-03-28T02:35:07.674Z,0.69
2024-03-28T02:36:07.658Z,0.70
2024-03-28T02:37:07.667Z,0.68
2024-03-28T02:38:07.664Z,0.70
2024-03-28T02:39:07.660Z,0.69
2024-03-28T02:40:07.651Z,0.68
2024-03-28T02:41:07.684Z,0.68
2024-03-28T02:42:07.750Z,0.70
2024-03-28T02:43:07.679Z,0.67
2024-03-28T02:44:07.663Z,0.70
2024-03-28T02:45:07.666Z,0.69
2024-03-28T02:46:07.667Z,0.70
2024-03-28T02:47:07.678Z,0.71
2024-03-28T02:48:07.667Z,0.70
2024-03-28T02:49:07.662Z,0.69
2024-03-28T02:50:07.659Z,0.70
2024-03-28T02:51:07.652Z,0.67
2024-03-28T02:52:07.654Z,0.64
2024-03-28T02:53:07.653Z,0.63
2024-03-28T02:54:07.636Z,0.63
2024-03-28T02:55:07.630Z,0.64
2024-03-28T02:56:07.629Z,0.61
2024-03-28T02:57:07.643Z,0.61
2024-03-28T02:58:07.632Z,0.59
2024-03-28T02:59:07.635Z,0.58
2024-03-28T03:00:07.642Z,0.61
2024-03-28T03:01:07.635Z,0.59
2024-03-28T03:02:07.645Z,0.59
2024-03-28T03:03:07.628Z,0.59
2024-03-28T03:04:07.644Z,0.61
2024-03-28T03:05:07.624Z,0.59
2024-03-28T03:06:07.652Z,0.59
2024-03-28T03:07:07.644Z,0.60
2024-03-28T03:08:07.645Z,0.60
2024-03-28T03:09:07.629Z,0.60
2024-03-28T03:10:07.653Z,0.58
2024-03-28T03:11:07.651Z,0.58
2024-03-28T03:12:07.659Z,0.57
2024-03-28T03:13:07.654Z,0.58
2024-03-28T03:14:07.650Z,0.58
2024-03-28T03:15:07.656Z,0.57
2024-03-28T03:16:07.683Z,0.57
2024-03-28T03:17:07.659Z,0.54
2024-03-28T03:18:07.663Z,0.55
2024-03-28T03:19:07.665Z,0.54
2024-03-28T03:20:07.659Z,0.55
2024-03-28T03:21:07.661Z,0.57
2024-03-28T03:22:07.665Z,0.54
2024-03-28T03:23:07.661Z,0.53
2024-03-28T03:24:07.675Z,0.53
2024-03-28T03:25:07.685Z,0.54
2024-03-28T03:26:07.720Z,0.54
2024-03-28T03:27:07.756Z,0.53
2024-03-28T03:28:07.792Z,0.53
2024-03-28T03:29:07.847Z,0.55
2024-03-28T03:30:07.881Z,0.55
2024-03-28T03:31:07.912Z,0.55
2024-03-28T03:32:07.955Z,0.54
2024-03-28T03:33:07.987Z,0.57
2024-03-28T03:34:08.024Z,0.56
2024-03-28T03:35:08.070Z,0.56
2024-03-28T03:36:08.111Z,0.58
2024-03-28T03:37:08.147Z,0.57
2024-03-28T03:38:08.185Z,0.57
2024-03-28T03:39:08.280Z,0.58
2024-03-28T03:40:08.274Z,0.58
2024-03-28T03:41:08.290Z,0.58
2024-03-28T03:42:08.331Z,0.58
2024-03-28T03:43:08.356Z,0.59
2024-03-28T03:44:08.399Z,0.60
2024-03-28T03:45:08.439Z,0.59
2024-03-28T03:46:08.467Z,0.62
2024-03-28T03:47:08.508Z,0.62
2024-03-28T03:48:08.536Z,0.61
2024-03-28T03:49:08.578Z,0.61
2024-03-28T03:50:08.615Z,0.62
2024-03-28T03:51:08.644Z,0.64
2024-03-28T03:52:08.693Z,0.63
2024-03-28T03:53:08.752Z,0.63
2024-03-28T03:54:08.766Z,0.64
2024-03-28T03:55:08.782Z,0.64
2024-03-28T03:56:08.818Z,0.63
2024-03-28T03:57:08.859Z,0.62
2024-03-28T03:58:08.892Z,0.63
2024-03-28T03:59:08.911Z,0.62
2024-03-28T04:00:08.960Z,0.63
2024-03-28T04:01:08.971Z,0.65
2024-03-28T04:02:09.024Z,0.66
2024-03-28T04:03:09.050Z,0.65
2024-03-28T04:04:09.087Z,0.66
2024-03-28T04:05:09.116Z,0.66
2024-03-28T04:06:09.151Z,0.67
2024-03-28T04:07:09.181Z,0.66
2024-03-28T04:08:09.220Z,0.65
2024-03-28T04:09:09.244Z,0.64
2024-03-28T04:10:09.290Z,0.62
2024-03-28T04:11:09.311Z,0.63
2024-03-28T04:12:09.368Z,0.62
2024-03-28T04:13:09.397Z,0.63
2024-03-28T04:14:09.422Z,0.62
2024-03-28T04:15:09.459Z,0.61
2024-03-28T04:16:09.496Z,0.60
2024-03-28T04:17:09.534Z,0.60
2024-03-28T04:18:09.582Z,0.60
2024-03-28T04:19:09.605Z,0.60
2024-03-28T04:20:09.647Z,0.60
2024-03-28T04:21:09.683Z,0.60
2024-03-28T04:22:09.725Z,0.61
2024-03-28T04:23:09.755Z,0.61
2024-03-28T04:24:09.821Z,0.63
2024-03-28T04:25:09.838Z,0.61
2024-03-28T04:26:09.889Z,0.61
2024-03-28T04:27:09.916Z,0.63
2024-03-28T04:28:09.949Z,0.63
2024-03-28T04:29:17.196Z,0.50
2024-03-28T04:30:17.180Z,0.50
2024-03-28T04:31:24.566Z,0.50
2024-03-28T04:32:24.585Z,0.50
2024-03-28T04:33:24.550Z,0.50
2024-03-28T04:34:24.652Z,0.50
2024-03-28T04:35:24.589Z,0.50
2024-03-28T04:36:24.588Z,0.52
2024-03-28T04:37:24.603Z,0.50
2024-03-28T04:38:24.579Z,0.51
2024-03-28T04:39:24.594Z,0.51
2024-03-28T04:40:24.648Z,0.51
2024-03-28T04:41:24.592Z,0.51
2024-03-28T04:42:24.577Z,0.53
2024-03-28T04:43:24.600Z,0.52
2024-03-28T04:44:24.586Z,0.52
2024-03-28T04:45:24.582Z,0.52
2024-03-28T04:46:24.622Z,0.50
2024-03-28T04:47:24.598Z,0.51
2024-03-28T04:48:24.649Z,0.51
2024-03-28T04:49:24.621Z,0.50
2024-03-28T04:50:24.618Z,0.52
2024-03-28T04:51:24.625Z,0.51
2024-03-28T04:52:24.692Z,0.52
2024-03-28T04:53:24.631Z,0.52
2024-03-28T04:54:24.639Z,0.52
2024-03-28T04:55:27.719Z,0.53
2024-03-28T04:56:24.646Z,0.52
2024-03-28T04:57:24.654Z,0.53
2024-03-28T04:58:24.700Z,0.54
2024-03-28T04:59:24.657Z,0.53
2024-03-28T05:00:24.703Z,0.54
2024-03-28T05:01:24.713Z,0.53
2024-03-28T05:02:24.688Z,0.52
2024-03-28T05:03:24.686Z,0.53
2024-03-28T05:04:24.705Z,0.54
2024-03-28T05:05:24.710Z,0.55
2024-03-28T05:06:24.702Z,0.55
2024-03-28T05:07:24.795Z,0.54
2024-03-28T05:08:24.724Z,0.54
2024-03-28T05:09:24.728Z,0.54
2024-03-28T05:10:24.793Z,0.56
2024-03-28T05:11:25.852Z,0.55
2024-03-28T05:12:24.736Z,0.55
2024-03-28T05:13:24.757Z,0.55
2024-03-28T05:14:24.747Z,0.56
2024-03-28T05:15:24.746Z,0.55
2024-03-28T05:16:24.792Z,0.56
2024-03-28T05:17:24.784Z,0.56
2024-03-28T05:18:24.761Z,0.55
2024-03-28T05:19:24.792Z,0.56
2024-03-28T05:20:24.774Z,0.56
2024-03-28T05:21:24.771Z,0.56
2024-03-28T05:22:24.806Z,0.55
2024-03-28T05:23:24.770Z,0.57
2024-03-28T05:24:24.791Z,0.56
2024-03-28T05:25:24.844Z,0.56
2024-03-28T05:26:24.772Z,0.57
2024-03-28T05:27:27.479Z,0.57
2024-03-28T05:28:24.794Z,0.57
2024-03-28T05:29:24.817Z,0.57
2024-03-28T05:30:24.806Z,0.57
2024-03-28T05:31:24.829Z,0.57
2024-03-28T05:32:24.806Z,0.57
2024-03-28T05:33:24.814Z,0.57
2024-03-28T05:34:24.827Z,0.57
2024-03-28T05:35:24.792Z,0.57
2024-03-28T05:36:24.785Z,0.56
2024-03-28T05:37:24.818Z,0.57
2024-03-28T05:38:24.803Z,0.56
2024-03-28T05:39:24.802Z,0.56
2024-03-28T05:40:24.837Z,0.55
2024-03-28T05:41:24.788Z,0.54
2024-03-28T05:42:24.798Z,0.53
2024-03-28T05:43:24.822Z,0.54
2024-03-28T05:44:24.807Z,0.52
2024-03-28T05:45:24.801Z,0.53
2024-03-28T05:46:24.819Z,0.52
2024-03-28T05:47:24.832Z,0.52
2024-03-28T05:48:24.841Z,0.51
2024-03-28T05:49:24.885Z,0.51
2024-03-28T05:50:24.857Z,0.52
2024-03-28T05:51:24.839Z,0.51
2024-03-28T05:52:24.892Z,0.51
2024-03-28T05:53:24.847Z,0.52
2024-03-28T05:54:24.848Z,0.51
2024-03-28T05:55:24.851Z,0.51
2024-03-28T05:56:24.853Z,0.52
2024-03-28T05:57:24.858Z,0.51
2024-03-28T05:58:24.876Z,0.51
2024-03-28T05:59:24.850Z,0.52
2024-03-28T06:00:24.865Z,0.53
2024-03-28T06:01:24.886Z,0.54
2024-03-28T06:02:24.861Z,0.52
2024-03-28T06:03:27.403Z,0.51
2024-03-28T06:04:24.875Z,0.52
2024-03-28T06:05:24.862Z,0.53
2024-03-28T06:06:24.865Z,0.52
2024-03-28T06:07:24.869Z,0.52
2024-03-28T06:08:24.865Z,0.53
2024-03-28T06:09:24.858Z,0.53
2024-03-28T06:10:24.890Z,0.52
2024-03-28T06:11:24.859Z,0.51
2024-03-28T06:12:24.866Z,0.51
2024-03-28T06:13:24.878Z,0.51
2024-03-28T06:14:24.844Z,0.50
2024-03-28T06:15:24.848Z,0.50
2024-03-28T06:16:24.854Z,0.52
2024-03-28T06:17:24.832Z,0.52
2024-03-28T06:18:24.876Z,0.51
2024-03-28T06:19:24.820Z,0.51
2024-03-28T06:20:24.813Z,0.52
2024-03-28T06:21:24.817Z,0.51
2024-03-28T06:22:27.064Z,0.50
2024-03-28T06:23:24.803Z,0.51
2024-03-28T06:24:24.797Z,0.49
2024-03-28T06:25:24.827Z,0.50
2024-03-28T06:26:24.855Z,0.50
2024-03-28T06:27:24.898Z,0.51
2024-03-28T06:28:24.942Z,0.50
2024-03-28T06:29:24.956Z,0.51
2024-03-28T06:30:25.020Z,0.52
2024-03-28T06:31:25.096Z,0.50
2024-03-28T06:32:25.133Z,0.50
2024-03-28T06:33:25.117Z,0.51
2024-03-28T06:34:25.162Z,0.51
2024-03-28T06:35:25.179Z,0.50
2024-03-28T06:36:25.222Z,0.51
2024-03-28T06:37:25.213Z,0.51
2024-03-28T06:38:25.213Z,0.51
2024-03-28T06:39:25.210Z,0.50
2024-03-28T06:40:25.216Z,0.51
2024-03-28T06:41:25.205Z,0.50
2024-03-28T06:42:25.197Z,0.51
2024-03-28T06:43:25.202Z,0.53
2024-03-28T06:44:25.173Z,0.52
2024-03-28T06:45:25.165Z,0.52
2024-03-28T06:46:25.196Z,0.52
2024-03-28T06:47:25.163Z,0.51
2024-03-28T06:48:25.211Z,0.51
2024-03-28T06:49:25.159Z,0.51
2024-03-28T06:50:25.185Z,0.50
2024-03-28T06:51:25.243Z,0.51
2024-03-28T06:52:25.326Z,0.51
2024-03-28T06:53:25.302Z,0.51
2024-03-28T06:54:25.343Z,0.53
2024-03-28T06:55:25.405Z,0.51
2024-03-28T06:56:25.411Z,0.53
2024-03-28T06:57:25.454Z,0.53
2024-03-28T06:58:25.537Z,0.51
2024-03-28T06:59:25.522Z,0.52
2024-03-28T07:00:25.563Z,0.52
2024-03-28T07:01:25.673Z,0.52
2024-03-28T07:02:25.634Z,0.53
2024-03-28T07:03:25.674Z,0.51
2024-03-28T07:04:25.711Z,0.50
2024-03-28T07:05:25.736Z,0.51
2024-03-28T07:06:25.779Z,0.51
2024-03-28T07:07:25.838Z,0.51
2024-03-28T07:08:25.844Z,0.51
2024-03-28T07:09:25.884Z,0.52
2024-03-28T07:10:25.982Z,0.50
2024-03-28T07:11:25.969Z,0.51
2024-03-28T07:12:26.036Z,0.51
2024-03-28T07:13:26.073Z,0.50
2024-03-28T07:14:26.091Z,0.51
2024-03-28T07:15:26.130Z,0.50
2024-03-28T07:16:26.179Z,0.52
2024-03-28T07:17:26.292Z,0.52
2024-03-28T07:18:26.249Z,0.52
2024-03-28T07:19:26.392Z,0.53
2024-03-28T07:20:26.299Z,0.54
2024-03-28T07:21:26.346Z,0.54
2024-03-28T07:22:26.404Z,0.56
2024-03-28T07:23:26.403Z,0.55
2024-03-28T07:24:26.454Z,0.57
2024-03-28T07:25:26.504Z,0.57
2024-03-28T07:26:26.490Z,0.57
2024-03-28T07:27:26.529Z,0.57
2024-03-28T07:28:26.585Z,0.59
2024-03-28T07:29:26.593Z,0.58
2024-03-28T07:30:26.631Z,0.59
2024-03-28T07:31:26.694Z,0.60
2024-03-28T07:32:26.677Z,0.59
2024-03-28T07:33:26.703Z,0.61
2024-03-28T07:34:26.763Z,0.61
2024-03-28T07:35:28.944Z,0.62
2024-03-28T07:36:26.823Z,0.63
2024-03-28T07:37:26.901Z,0.64
2024-03-28T07:38:26.907Z,0.63
2024-03-28T07:39:26.949Z,0.65
2024-03-28T07:40:26.998Z,0.63
2024-03-28T07:41:27.024Z,0.64
2024-03-28T07:42:27.069Z,0.64
2024-03-28T07:43:27.129Z,0.64
2024-03-28T07:44:27.151Z,0.64
2024-03-28T07:45:27.193Z,0.65
2024-03-28T07:46:27.199Z,0.64
2024-03-28T07:47:27.292Z,0.62
2024-03-28T07:48:27.286Z,0.64
2024-03-28T07:49:27.324Z,0.64
2024-03-28T07:50:27.371Z,0.63
2024-03-28T07:51:27.381Z,0.61
2024-03-28T07:52:27.441Z,0.62
2024-03-28T07:53:27.459Z,0.63
2024-03-28T07:54:27.490Z,0.65
2024-03-28T07:55:27.545Z,0.63
2024-03-28T07:56:27.574Z,0.63
2024-03-28T07:57:27.601Z,0.64
2024-03-28T07:58:27.626Z,0.64
2024-03-28T07:59:27.591Z,0.63
2024-03-28T08:00:27.595Z,0.64
2024-03-28T08:01:27.583Z,0.64
2024-03-28T08:02:27.588Z,0.64
2024-03-28T08:03:27.564Z,0.64
2024-03-28T08:04:27.595Z,0.65
2024-03-28T08:05:27.555Z,0.65
2024-03-28T08:06:27.538Z,0.64
2024-03-28T08:07:27.552Z,0.65
2024-03-28T08:08:27.543Z,0.63
2024-03-28T08:09:27.567Z,0.62
2024-03-28T08:10:27.636Z,0.63
2024-03-28T08:11:27.646Z,0.63
2024-03-28T08:12:27.669Z,0.64
2024-03-28T08:13:27.735Z,0.64
2024-03-28T08:14:27.733Z,0.64
2024-03-28T08:15:27.791Z,0.65
2024-03-28T08:16:27.838Z,0.65
2024-03-28T08:17:27.897Z,0.64
2024-03-28T08:18:27.893Z,0.65
2024-03-28T08:19:27.964Z,0.65
2024-03-28T08:20:27.973Z,0.66
2024-03-28T08:21:28.000Z,0.64
2024-03-28T08:22:28.074Z,0.68
2024-03-28T08:23:28.072Z,0.65
2024-03-28T08:24:28.098Z,0.65
2024-03-28T08:25:28.166Z,0.65
2024-03-28T08:26:28.200Z,0.64
2024-03-28T08:27:28.212Z,0.63
2024-03-28T08:28:28.264Z,0.63
2024-03-28T08:29:28.266Z,0.61
2024-03-28T08:30:28.888Z,0.61
2024-03-28T08:31:28.372Z,0.62
2024-03-28T08:32:28.426Z,0.61
2024-03-28T08:33:28.427Z,0.60
2024-03-28T08:34:28.470Z,0.59
2024-03-28T08:35:28.511Z,0.59
2024-03-28T08:36:28.544Z,0.59
2024-03-28T08:37:28.599Z,0.58
2024-03-28T08:38:28.627Z,0.59
2024-03-28T08:39:28.671Z,0.58
2024-03-28T08:40:28.716Z,0.57
2024-03-28T08:41:28.763Z,0.56
2024-03-28T08:42:28.799Z,0.55
2024-03-28T08:43:28.817Z,0.56
2024-03-28T08:44:28.887Z,0.56
2024-03-28T08:45:28.909Z,0.57
2024-03-28T08:46:28.935Z,0.55
2024-03-28T08:47:29.043Z,0.55
2024-03-28T08:48:28.969Z,0.55
2024-03-28T08:49:28.990Z,0.56
2024-03-28T08:50:28.996Z,0.56
2024-03-28T08:51:28.961Z,0.56
2024-03-28T08:52:28.993Z,0.57
2024-03-28T08:53:28.958Z,0.56
2024-03-28T08:54:28.956Z,0.56
2024-03-28T08:55:28.968Z,0.56
2024-03-28T08:56:30.678Z,0.55
2024-03-28T08:57:29.249Z,0.56
2024-03-28T08:58:29.228Z,0.55
2024-03-28T08:59:29.116Z,0.57
2024-03-28T09:00:29.111Z,0.56
2024-03-28T09:01:28.948Z,0.56
2024-03-28T09:02:28.951Z,0.56
2024-03-28T09:03:28.909Z,0.56
2024-03-28T09:04:28.902Z,0.57
2024-03-28T09:05:28.892Z,0.58
2024-03-28T09:06:28.906Z,0.59
2024-03-28T09:07:28.918Z,0.59
2024-03-28T09:08:28.891Z,0.59
2024-03-28T09:09:28.948Z,0.61
2024-03-28T09:10:28.891Z,0.60
2024-03-28T09:11:28.892Z,0.61
2024-03-28T09:12:28.902Z,0.59
2024-03-28T09:13:28.929Z,0.61
2024-03-28T09:14:28.909Z,0.60
2024-03-28T09:15:28.978Z,0.60
2024-03-28T09:16:28.994Z,0.62
2024-03-28T09:17:29.029Z,0.62
2024-03-28T09:18:29.098Z,0.62
2024-03-28T09:19:29.158Z,0.61
2024-03-28T09:20:29.115Z,0.62
2024-03-28T09:21:29.227Z,0.62
2024-03-28T09:22:29.201Z,0.60
2024-03-28T09:23:29.280Z,0.59
2024-03-28T09:24:29.299Z,0.58
2024-03-28T09:25:29.311Z,0.58
2024-03-28T09:26:29.333Z,0.58
2024-03-28T09:27:29.386Z,0.59
2024-03-28T09:28:29.430Z,0.58
2024-03-28T09:29:29.447Z,0.58
2024-03-28T09:30:29.506Z,0.57
2024-03-28T09:31:29.525Z,0.57
2024-03-28T09:32:30.187Z,0.58
2024-03-28T09:33:29.630Z,0.59
2024-03-28T09:34:29.621Z,0.57
2024-03-28T09:35:29.632Z,0.57
2024-03-28T09:36:29.698Z,0.58
2024-03-28T09:37:29.603Z,0.58
2024-03-28T09:38:29.599Z,0.58
2024-03-28T09:39:29.575Z,0.58
2024-03-28T09:40:29.678Z,0.60
2024-03-28T09:41:29.604Z,0.59
2024-03-28T09:42:29.589Z,0.58
2024-03-28T09:43:29.628Z,0.59
2024-03-28T09:44:29.586Z,0.60
2024-03-28T09:45:29.595Z,0.60
2024-03-28T09:46:29.666Z,0.59
2024-03-28T09:47:29.634Z,0.61
2024-03-28T09:48:29.595Z,0.61
2024-03-28T09:49:29.653Z,0.61
2024-03-28T09:50:29.624Z,0.61
2024-03-28T09:51:29.697Z,0.61
2024-03-28T09:52:29.742Z,0.62
2024-03-28T09:53:29.765Z,0.61
2024-03-28T09:54:29.768Z,0.61
2024-03-28T09:55:29.908Z,0.62
2024-03-28T09:56:29.827Z,0.63
2024-03-28T09:57:29.875Z,0.64
2024-03-28T09:58:29.908Z,0.65
2024-03-28T09:59:29.932Z,0.65
2024-03-28T10:00:30.010Z,0.64
2024-03-28T10:01:30.013Z,0.64
2024-03-28T10:02:30.077Z,0.63
2024-03-28T10:03:30.081Z,0.63
2024-03-28T10:04:30.091Z,0.64
2024-03-28T10:05:30.112Z,0.64
2024-03-28T10:06:30.133Z,0.64
2024-03-28T10:07:30.168Z,0.64
2024-03-28T10:08:30.218Z,0.65
2024-03-28T10:09:30.220Z,0.64
2024-03-28T10:10:30.262Z,0.64
2024-03-28T10:11:30.273Z,0.65
2024-03-28T10:12:30.319Z,0.64
2024-03-28T10:13:30.314Z,0.65
2024-03-28T10:14:30.406Z,0.65
2024-03-28T10:15:30.553Z,0.66
2024-03-28T10:16:30.538Z,0.66
2024-03-28T10:17:30.605Z,0.66
2024-03-28T10:18:30.543Z,0.67
2024-03-28T10:19:30.554Z,0.66
2024-03-28T10:20:30.547Z,0.67
2024-03-28T10:21:30.547Z,0.67
2024-03-28T10:22:30.580Z,0.67
2024-03-28T10:23:30.561Z,0.68
2024-03-28T10:24:30.555Z,0.68
2024-03-28T10:25:30.596Z,0.66
2024-03-28T10:26:30.563Z,0.67
2024-03-28T10:27:30.564Z,0.67
2024-03-28T10:28:30.578Z,0.67
2024-03-28T10:29:30.560Z,0.66
2024-03-28T10:30:30.572Z,0.67
2024-03-28T10:31:30.550Z,0.65
2024-03-28T10:32:30.549Z,0.64
2024-03-28T10:33:30.591Z,0.64
2024-03-28T10:34:30.574Z,0.63
2024-03-28T10:35:30.548Z,0.64
2024-03-28T10:36:30.551Z,0.64
2024-03-28T10:37:40.464Z,0.64
2024-03-28T10:38:31.576Z,0.64
2024-03-28T10:39:30.548Z,0.63
2024-03-28T10:40:30.565Z,0.64
2024-03-28T10:41:30.563Z,0.64
2024-03-28T10:42:30.553Z,0.63
2024-03-28T10:43:30.568Z,0.63
2024-03-28T10:44:30.552Z,0.64
2024-03-28T10:45:30.565Z,0.63
2024-03-28T10:46:30.558Z,0.63
2024-03-28T10:47:30.557Z,0.61
2024-03-28T10:48:30.551Z,0.59
2024-03-28T10:49:30.535Z,0.61
2024-03-28T10:50:30.543Z,0.61
2024-03-28T10:51:30.534Z,0.59
2024-03-28T10:52:30.536Z,0.59
2024-03-28T10:53:30.559Z,0.59
2024-03-28T10:54:30.535Z,0.58
2024-03-28T10:55:32.756Z,0.59
2024-03-28T10:56:30.527Z,0.59
2024-03-28T10:57:30.516Z,0.58
2024-03-28T10:58:30.524Z,0.59
2024-03-28T10:59:30.508Z,0.58
2024-03-28T11:00:30.547Z,0.58
2024-03-28T11:01:32.850Z,0.60
2024-03-28T11:02:30.654Z,0.58
2024-03-28T11:03:30.762Z,0.59
2024-03-28T11:04:30.864Z,0.60
2024-03-28T11:05:30.950Z,0.61
2024-03-28T11:06:30.940Z,0.61
2024-03-28T11:07:30.957Z,0.60
2024-03-28T11:08:30.956Z,0.62
2024-03-28T11:09:30.958Z,0.61
2024-03-28T11:10:30.974Z,0.63
2024-03-28T11:11:31.072Z,0.59
2024-03-28T11:12:31.071Z,0.61
2024-03-28T11:13:31.098Z,0.60
2024-03-28T11:14:31.073Z,0.60
2024-03-28T11:15:31.072Z,0.60
2024-03-28T11:16:31.061Z,0.59
2024-03-28T11:17:31.060Z,0.58
2024-03-28T11:18:31.066Z,0.60
2024-03-28T11:19:33.541Z,0.59
2024-03-28T11:20:31.039Z,0.59
2024-03-28T11:21:31.055Z,0.58
2024-03-28T11:22:31.038Z,0.58
2024-03-28T11:23:31.049Z,0.58
2024-03-28T11:24:31.045Z,0.58
2024-03-28T11:25:31.065Z,0.58
2024-03-28T11:26:31.027Z,0.59
2024-03-28T11:27:31.041Z,0.59
2024-03-28T11:28:31.019Z,0.59
2024-03-28T11:29:31.005Z,0.60
2024-03-28T11:30:30.993Z,0.60
2024-03-28T11:31:30.999Z,0.60
2024-03-28T11:32:30.983Z,0.60
2024-03-28T11:33:30.963Z,0.60
2024-03-28T11:34:30.968Z,0.61
2024-03-28T11:35:30.955Z,0.61
2024-03-28T11:36:30.950Z,0.60
2024-03-28T11:37:30.970Z,0.59
2024-03-28T11:38:30.950Z,0.59
2024-03-28T11:39:30.932Z,0.60
2024-03-28T11:40:30.945Z,0.60
2024-03-28T11:41:30.968Z,0.59
2024-03-28T11:42:35.941Z,0.60
2024-03-28T11:43:31.927Z,0.60
2024-03-28T11:44:30.924Z,0.60
2024-03-28T11:45:30.922Z,0.59
2024-03-28T11:46:30.932Z,0.58
2024-03-28T11:47:33.115Z,0.57
2024-03-28T11:48:30.929Z,0.58
2024-03-28T11:49:30.915Z,0.57
2024-03-28T11:50:31.642Z,0.56
2024-03-28T11:51:30.945Z,0.56
2024-03-28T11:52:30.906Z,0.56
2024-03-28T11:53:30.900Z,0.54
2024-03-28T11:54:30.897Z,0.53
2024-03-28T11:55:30.893Z,0.54
2024-03-28T11:56:32.339Z,0.54
2024-03-28T11:57:30.890Z,0.53
2024-03-28T11:58:30.891Z,0.52
2024-03-28T11:59:30.900Z,0.53
2024-03-28T12:00:30.895Z,0.54
2024-03-28T12:01:30.906Z,0.54
2024-03-28T12:02:30.883Z,0.54
2024-03-28T12:03:30.917Z,0.55
2024-03-28T12:04:30.882Z,0.55
2024-03-28T12:05:30.878Z,0.54
2024-03-28T12:06:30.859Z,0.57
2024-03-28T12:07:30.852Z,0.57
2024-03-28T12:08:35.146Z,0.57
2024-03-28T12:09:31.878Z,0.57
2024-03-28T12:10:30.894Z,0.56
2024-03-28T12:11:30.864Z,0.57
2024-03-28T12:12:30.863Z,0.56
2024-03-28T12:13:30.838Z,0.55
2024-03-28T12:14:30.833Z,0.57
2024-03-28T12:15:30.827Z,0.56
2024-03-28T12:16:30.827Z,0.56
2024-03-28T12:17:30.806Z,0.54
2024-03-28T12:18:30.825Z,0.55
2024-03-28T12:19:30.800Z,0.54
2024-03-28T12:20:30.821Z,0.53
2024-03-28T12:21:30.795Z,0.53
2024-03-28T12:22:30.802Z,0.53
2024-03-28T12:23:30.784Z,0.53
2024-03-28T12:24:30.785Z,0.50
2024-03-28T12:25:30.780Z,0.50
2024-03-28T12:26:32.766Z,0.51
2024-03-28T12:27:30.792Z,0.50
2024-03-28T12:28:30.762Z,0.51
2024-03-28T12:29:30.751Z,0.51
2024-03-28T12:30:30.750Z,0.51
2024-03-28T12:31:30.759Z,0.51
2024-03-28T12:32:30.735Z,0.50
2024-03-28T12:33:30.751Z,0.50
2024-03-28T12:34:30.724Z,0.51
2024-03-28T12:35:30.744Z,0.49
2024-03-28T12:36:33.562Z,0.50
2024-03-28T12:37:30.732Z,0.49
2024-03-28T12:38:30.707Z,0.50
2024-03-28T12:39:30.727Z,0.51
2024-03-28T12:40:30.737Z,0.53
2024-03-28T12:41:30.700Z,0.53
2024-03-28T12:42:30.710Z,0.52
2024-03-28T12:43:30.711Z,0.54
2024-03-28T12:44:30.696Z,0.53
2024-03-28T12:45:30.676Z,0.54
2024-03-28T12:46:30.715Z,0.55
2024-03-28T12:47:30.719Z,0.55
2024-03-28T12:48:30.682Z,0.55
2024-03-28T12:49:30.675Z,0.57
2024-03-28T12:50:30.659Z,0.57
2024-03-28T12:51:30.655Z,0.57
2024-03-28T12:52:30.647Z,0.58
2024-03-28T12:53:30.650Z,0.58
2024-03-28T12:54:30.633Z,0.59
2024-03-28T12:55:30.628Z,0.58
2024-03-28T12:56:30.620Z,0.60
2024-03-28T12:57:30.635Z,0.60
2024-03-28T12:58:30.621Z,0.58
2024-03-28T12:59:30.608Z,0.61
2024-03-28T13:00:30.603Z,0.61
2024-03-28T13:01:30.604Z,0.60
2024-03-28T13:02:30.608Z,0.61
2024-03-28T13:03:30.581Z,0.62
2024-03-28T13:04:30.565Z,0.62
2024-03-28T13:05:30.563Z,0.62
2024-03-28T13:06:30.664Z,0.61
2024-03-28T13:07:30.543Z,0.62
2024-03-28T13:08:30.542Z,0.62
2024-03-28T13:09:30.611Z,0.62
2024-03-28T13:10:30.530Z,0.63
2024-03-28T13:11:30.523Z,0.64
2024-03-28T13:12:30.524Z,0.66
2024-03-28T13:13:30.520Z,0.65
2024-03-28T13:14:30.530Z,0.65
2024-03-28T13:15:30.519Z,0.63
2024-03-28T13:16:30.504Z,0.63
2024-03-28T13:17:30.491Z,0.65
2024-03-28T13:18:30.520Z,0.66